createdAt,value
2018-03-31T00:00:05.336Z,959.61
2018-03-31T00:01:06.131Z,959.52
2018-03-31T00:02:05.933Z,959.50
2018-03-31T00:03:05.822Z,959.61
2018-03-31T00:04:05.517Z,959.38
2018-03-31T00:05:05.837Z,959.41
2018-03-31T00:06:05.528Z,959.44
2018-03-31T00:07:05.143Z,959.55
2018-03-31T00:08:05.115Z,959.50
2018-03-31T00:09:05.252Z,959.53
2018-03-31T00:10:05.252Z,959.58
2018-03-31T00:11:05.870Z,959.47
2018-03-31T00:12:05.621Z,959.50
2018-03-31T00:13:06.084Z,959.64
2018-03-31T00:14:05.552Z,959.61
2018-03-31T00:15:10.224Z,959.59
2018-03-31T00:16:05.187Z,959.50
2018-03-31T00:17:05.528Z,959.67
2018-03-31T00:18:05.373Z,959.56
2018-03-31T00:19:05.306Z,959.50
2018-03-31T00:20:05.047Z,959.59
2018-03-31T00:21:05.827Z,959.64
2018-03-31T00:22:05.560Z,959.53
2018-03-31T00:23:05.507Z,959.59
2018-03-31T00:24:05.559Z,959.45
2018-03-31T00:25:05.190Z,959.39
2018-03-31T00:26:05.107Z,959.45
2018-03-31T00:27:06.060Z,959.33
2018-03-31T00:28:05.814Z,959.50
2018-03-31T00:29:05.509Z,959.48
2018-03-31T00:30:05.356Z,959.48
2018-03-31T00:31:05.064Z,959.78
2018-03-31T00:32:04.967Z,959.75
2018-03-31T00:33:05.300Z,959.64
2018-03-31T00:34:05.352Z,959.75
2018-03-31T00:35:05.332Z,959.80
2018-03-31T00:36:05.707Z,959.64
2018-03-31T00:37:05.541Z,959.64
2018-03-31T00:38:06.904Z,959.56
2018-03-31T00:39:10.861Z,959.64
2018-03-31T00:40:05.248Z,959.50
2018-03-31T00:41:05.500Z,959.56
2018-03-31T00:42:05.805Z,959.44
2018-03-31T00:43:05.403Z,959.50
2018-03-31T00:44:05.007Z,959.44
2018-03-31T00:45:05.775Z,959.39
2018-03-31T00:46:05.352Z,959.39
2018-03-31T00:47:05.160Z,959.47
2018-03-31T00:48:05.347Z,959.53
2018-03-31T00:49:05.222Z,959.47
2018-03-31T00:50:05.628Z,959.45
2018-03-31T00:51:04.977Z,959.42
2018-03-31T00:52:05.852Z,959.39
2018-03-31T00:53:05.486Z,959.48
2018-03-31T00:54:05.467Z,959.39
2018-03-31T00:55:05.891Z,959.42
2018-03-31T00:56:05.795Z,959.42
2018-03-31T00:57:05.413Z,959.39
2018-03-31T00:58:05.089Z,959.48
2018-03-31T00:59:05.998Z,959.37
2018-03-31T01:00:07.200Z,959.51
2018-03-31T01:01:05.285Z,959.45
2018-03-31T01:02:05.955Z,959.43
2018-03-31T01:03:05.661Z,959.34
2018-03-31T01:04:05.299Z,959.51
2018-03-31T01:05:04.944Z,959.51
2018-03-31T01:06:04.999Z,959.51
2018-03-31T01:07:05.239Z,959.60
2018-03-31T01:08:05.091Z,959.51
2018-03-31T01:09:05.965Z,959.65
2018-03-31T01:10:05.958Z,959.54
2018-03-31T01:11:04.935Z,959.43
2018-03-31T01:12:05.850Z,959.60
2018-03-31T01:13:06.021Z,959.73
2018-03-31T01:14:05.259Z,959.48
2018-03-31T01:15:05.970Z,959.70
2018-03-31T01:16:05.846Z,959.70
2018-03-31T01:17:05.707Z,959.65
2018-03-31T01:18:05.222Z,959.59
2018-03-31T01:19:05.212Z,959.43
2018-03-31T01:20:05.627Z,959.45
2018-03-31T01:21:05.300Z,959.40
2018-03-31T01:22:10.314Z,959.43
2018-03-31T01:23:05.609Z,959.51
2018-03-31T01:24:05.721Z,959.54
2018-03-31T01:25:05.805Z,959.49
2018-03-31T01:26:05.894Z,959.40
2018-03-31T01:27:05.505Z,959.35
2018-03-31T01:28:05.228Z,959.32
2018-03-31T01:29:05.568Z,959.32
2018-03-31T01:30:05.539Z,959.46
2018-03-31T01:31:05.149Z,959.29
2018-03-31T01:32:05.873Z,959.38
2018-03-31T01:33:05.993Z,959.52
2018-03-31T01:34:05.112Z,959.32
2018-03-31T01:35:05.102Z,959.24
2018-03-31T01:36:05.505Z,959.38
2018-03-31T01:37:05.606Z,959.24
2018-03-31T01:38:05.303Z,959.24
2018-03-31T01:39:05.196Z,959.29
2018-03-31T01:40:06.113Z,959.18
2018-03-31T01:41:05.345Z,959.16
2018-03-31T01:42:05.310Z,959.18
2018-03-31T01:43:05.987Z,959.27
2018-03-31T01:44:05.738Z,959.18
2018-03-31T01:45:06.255Z,959.16
2018-03-31T01:46:05.266Z,959.05
2018-03-31T01:47:05.135Z,959.24
2018-03-31T01:48:05.853Z,959.24
2018-03-31T01:49:05.902Z,959.13
2018-03-31T01:50:05.660Z,959.27
2018-03-31T01:51:05.088Z,959.24
2018-03-31T01:52:05.020Z,959.27
2018-03-31T01:53:04.981Z,959.14
2018-03-31T01:54:06.196Z,959.24
2018-03-31T01:55:06.695Z,959.14
2018-03-31T01:56:05.453Z,959.08
2018-03-31T01:57:05.088Z,959.27
2018-03-31T01:58:05.170Z,959.16
2018-03-31T01:59:05.198Z,959.22
2018-03-31T02:00:05.189Z,959.14
2018-03-31T02:01:05.179Z,959.19
2018-03-31T02:02:05.133Z,959.11
2018-03-31T02:03:04.948Z,959.09
2018-03-31T02:04:05.215Z,959.16
2018-03-31T02:05:05.772Z,959.12
2018-03-31T02:06:05.767Z,959.19
2018-03-31T02:07:05.409Z,959.17
2018-03-31T02:08:05.826Z,959.20
2018-03-31T02:09:05.369Z,959.06
2018-03-31T02:10:05.036Z,959.20
2018-03-31T02:11:05.230Z,959.10
2018-03-31T02:12:05.991Z,958.93
2018-03-31T02:13:05.899Z,958.96
2018-03-31T02:14:05.379Z,959.07
2018-03-31T02:15:05.230Z,959.04
2018-03-31T02:16:05.452Z,959.01
2018-03-31T02:17:05.170Z,958.93
2018-03-31T02:18:06.004Z,958.85
2018-03-31T02:19:05.845Z,959.04
2018-03-31T02:20:05.322Z,958.96
2018-03-31T02:21:05.338Z,959.05
2018-03-31T02:22:05.119Z,959.13
2018-03-31T02:23:04.969Z,958.94
2018-03-31T02:24:05.894Z,958.96
2018-03-31T02:25:05.610Z,958.99
2018-03-31T02:26:05.331Z,959.05
2018-03-31T02:27:05.363Z,959.11
2018-03-31T02:28:06.853Z,958.91
2018-03-31T02:29:05.815Z,958.88
2018-03-31T02:30:05.171Z,958.85
2018-03-31T02:31:05.846Z,958.83
2018-03-31T02:32:05.706Z,958.71
2018-03-31T02:33:05.223Z,958.85
2018-03-31T02:34:10.011Z,958.83
2018-03-31T02:35:06.214Z,958.71
2018-03-31T02:36:05.838Z,958.74
2018-03-31T02:37:05.055Z,958.80
2018-03-31T02:38:05.097Z,958.71
2018-03-31T02:39:05.379Z,958.77
2018-03-31T02:40:05.962Z,958.69
2018-03-31T02:41:05.501Z,958.74
2018-03-31T02:42:05.275Z,958.66
2018-03-31T02:43:05.900Z,958.77
2018-03-31T02:44:05.624Z,958.72
2018-03-31T02:45:05.680Z,958.72
2018-03-31T02:46:04.960Z,958.49
2018-03-31T02:47:10.981Z,958.66
2018-03-31T02:48:06.101Z,958.63
2018-03-31T02:49:05.405Z,958.58
2018-03-31T02:50:05.551Z,958.63
2018-03-31T02:51:05.166Z,958.66
2018-03-31T02:52:05.741Z,958.58
2018-03-31T02:53:05.272Z,958.55
2018-03-31T02:54:05.122Z,958.52
2018-03-31T02:55:05.184Z,958.33
2018-03-31T02:56:11.322Z,958.52
2018-03-31T02:57:05.752Z,958.47
2018-03-31T02:58:05.611Z,958.58
2018-03-31T02:59:05.289Z,958.55
2018-03-31T03:00:05.969Z,958.44
2018-03-31T03:01:05.883Z,958.41
2018-03-31T03:02:05.645Z,958.47
2018-03-31T03:03:05.221Z,958.53
2018-03-31T03:04:05.642Z,958.56
2018-03-31T03:05:05.123Z,958.44
2018-03-31T03:06:05.171Z,958.53
2018-03-31T03:07:08.410Z,958.53
2018-03-31T03:08:05.305Z,958.39
2018-03-31T03:09:05.374Z,958.44
2018-03-31T03:10:05.413Z,958.47
2018-03-31T03:11:05.215Z,958.50
2018-03-31T03:12:05.084Z,958.42
2018-03-31T03:13:05.505Z,958.42
2018-03-31T03:14:05.315Z,958.30
2018-03-31T03:15:05.115Z,958.28
2018-03-31T03:16:05.148Z,958.36
2018-03-31T03:17:05.253Z,958.39
2018-03-31T03:18:05.413Z,958.30
2018-03-31T03:19:05.176Z,958.33
2018-03-31T03:20:06.045Z,958.36
2018-03-31T03:21:05.723Z,958.30
2018-03-31T03:22:05.594Z,958.25
2018-03-31T03:23:05.452Z,958.33
2018-03-31T03:24:05.632Z,958.30
2018-03-31T03:25:05.510Z,958.28
2018-03-31T03:26:05.055Z,958.36
2018-03-31T03:27:04.982Z,958.30
2018-03-31T03:28:05.099Z,958.33
2018-03-31T03:29:05.583Z,958.30
2018-03-31T03:30:05.770Z,958.27
2018-03-31T03:31:10.150Z,958.16
2018-03-31T03:32:05.122Z,958.30
2018-03-31T03:33:07.309Z,958.33
2018-03-31T03:34:05.389Z,958.21
2018-03-31T03:35:05.308Z,958.35
2018-03-31T03:36:05.723Z,958.32
2018-03-31T03:37:05.685Z,958.24
2018-03-31T03:38:05.692Z,958.27
2018-03-31T03:39:05.309Z,958.35
2018-03-31T03:40:05.437Z,958.30
2018-03-31T03:41:05.449Z,958.35
2018-03-31T03:42:05.048Z,958.43
2018-03-31T03:43:05.154Z,958.29
2018-03-31T03:44:05.201Z,958.46
2018-03-31T03:45:05.134Z,958.52
2018-03-31T03:46:05.855Z,958.46
2018-03-31T03:47:05.510Z,958.43
2018-03-31T03:48:06.100Z,958.38
2018-03-31T03:49:05.976Z,958.40
2018-03-31T03:50:05.877Z,958.26
2018-03-31T03:51:05.947Z,958.35
2018-03-31T03:52:05.792Z,958.21
2018-03-31T03:53:05.331Z,958.23
2018-03-31T03:54:05.020Z,958.35
2018-03-31T03:55:05.658Z,958.26
2018-03-31T03:56:05.198Z,958.46
2018-03-31T03:57:05.709Z,958.40
2018-03-31T03:58:05.206Z,958.32
2018-03-31T03:59:05.104Z,958.32
2018-03-31T04:00:05.614Z,958.29
2018-03-31T04:01:06.235Z,958.32
2018-03-31T04:02:05.473Z,958.46
2018-03-31T04:03:05.361Z,958.34
2018-03-31T04:04:05.147Z,958.45
2018-03-31T04:05:05.059Z,958.20
2018-03-31T04:06:05.968Z,958.34
2018-03-31T04:07:05.798Z,958.26
2018-03-31T04:08:05.563Z,958.23
2018-03-31T04:09:05.335Z,958.18
2018-03-31T04:10:05.405Z,958.32
2018-03-31T04:11:05.831Z,958.38
2018-03-31T04:12:05.772Z,958.32
2018-03-31T04:13:05.284Z,958.26
2018-03-31T04:14:05.372Z,958.38
2018-03-31T04:15:05.328Z,958.35
2018-03-31T04:16:05.678Z,958.29
2018-03-31T04:17:05.384Z,958.35
2018-03-31T04:18:05.787Z,958.18
2018-03-31T04:19:04.988Z,958.29
2018-03-31T04:20:05.382Z,958.24
2018-03-31T04:21:06.236Z,958.38
2018-03-31T04:22:10.261Z,958.40
2018-03-31T04:23:05.116Z,958.32
2018-03-31T04:24:04.954Z,958.27
2018-03-31T04:25:05.348Z,958.32
2018-03-31T04:26:05.213Z,958.30
2018-03-31T04:27:10.031Z,958.10
2018-03-31T04:28:05.204Z,958.35
2018-03-31T04:29:05.159Z,958.30
2018-03-31T04:30:05.544Z,958.36
2018-03-31T04:31:05.123Z,958.21
2018-03-31T04:32:05.001Z,958.30
2018-03-31T04:33:05.323Z,958.19
2018-03-31T04:34:06.208Z,958.16
2018-03-31T04:35:05.395Z,958.16
2018-03-31T04:36:05.438Z,958.05
2018-03-31T04:37:05.505Z,958.13
2018-03-31T04:38:05.345Z,958.02
2018-03-31T04:39:05.241Z,958.13
2018-03-31T04:40:05.434Z,958.02
2018-03-31T04:41:05.117Z,958.08
2018-03-31T04:42:05.348Z,958.11
2018-03-31T04:43:04.978Z,958.16
2018-03-31T04:44:04.978Z,958.05
2018-03-31T04:45:05.767Z,958.02
2018-03-31T04:46:05.314Z,958.02
2018-03-31T04:47:05.285Z,958.13
2018-03-31T04:48:05.216Z,958.13
2018-03-31T04:49:05.208Z,958.22
2018-03-31T04:50:05.075Z,958.19
2018-03-31T04:51:05.229Z,958.13
2018-03-31T04:52:05.786Z,958.25
2018-03-31T04:53:05.358Z,958.16
2018-03-31T04:54:05.251Z,958.25
2018-03-31T04:55:05.289Z,958.39
2018-03-31T04:56:05.784Z,958.33
2018-03-31T04:57:05.850Z,958.19
2018-03-31T04:58:05.965Z,958.33
2018-03-31T04:59:05.878Z,958.33
2018-03-31T05:00:05.492Z,958.36
2018-03-31T05:01:05.988Z,958.44
2018-03-31T05:02:05.326Z,958.36
2018-03-31T05:03:05.145Z,958.30
2018-03-31T05:04:05.295Z,958.33
2018-03-31T05:05:05.818Z,958.33
2018-03-31T05:06:05.482Z,958.33
2018-03-31T05:07:06.409Z,958.42
2018-03-31T05:08:06.129Z,958.30
2018-03-31T05:09:05.163Z,958.39
2018-03-31T05:10:05.327Z,958.28
2018-03-31T05:11:05.368Z,958.36
2018-03-31T05:12:05.271Z,958.39
2018-03-31T05:13:05.555Z,958.42
2018-03-31T05:14:05.111Z,958.44
2018-03-31T05:15:05.369Z,958.39
2018-03-31T05:16:10.404Z,958.22
2018-03-31T05:17:05.998Z,958.36
2018-03-31T05:18:05.639Z,958.47
2018-03-31T05:19:04.918Z,958.50
2018-03-31T05:20:06.058Z,958.30
2018-03-31T05:21:06.210Z,958.31
2018-03-31T05:22:05.424Z,958.30
2018-03-31T05:23:06.697Z,958.42
2018-03-31T05:24:05.979Z,958.36
2018-03-31T05:25:05.789Z,958.44
2018-03-31T05:26:05.066Z,958.36
2018-03-31T05:27:05.822Z,958.39
2018-03-31T05:28:05.810Z,958.36
2018-03-31T05:29:05.551Z,958.36
2018-03-31T05:30:05.373Z,958.36
2018-03-31T05:31:05.355Z,958.33
2018-03-31T05:32:05.316Z,958.33
2018-03-31T05:33:05.201Z,958.33
2018-03-31T05:34:06.278Z,958.25
2018-03-31T05:35:06.204Z,958.25
2018-03-31T05:36:05.322Z,958.30
2018-03-31T05:37:05.829Z,958.36
2018-03-31T05:38:05.671Z,958.39
2018-03-31T05:39:05.953Z,958.33
2018-03-31T05:40:05.449Z,958.33
2018-03-31T05:41:05.224Z,958.27
2018-03-31T05:42:05.330Z,958.30
2018-03-31T05:43:10.470Z,958.44
2018-03-31T05:44:05.478Z,958.50
2018-03-31T05:45:05.071Z,958.44
2018-03-31T05:46:06.108Z,958.47
2018-03-31T05:47:06.166Z,958.25
2018-03-31T05:48:05.367Z,958.36
2018-03-31T05:49:05.557Z,958.47
2018-03-31T05:50:05.583Z,958.39
2018-03-31T05:51:05.678Z,958.33
2018-03-31T05:52:05.359Z,958.30
2018-03-31T05:53:05.988Z,958.13
2018-03-31T05:54:05.667Z,958.33
2018-03-31T05:55:05.096Z,958.39
2018-03-31T05:56:05.460Z,958.44
2018-03-31T05:57:05.015Z,958.33
2018-03-31T05:58:05.725Z,958.36
2018-03-31T05:59:05.279Z,958.30
2018-03-31T06:00:05.445Z,958.44
2018-03-31T06:01:10.197Z,958.36
2018-03-31T06:02:05.550Z,958.44
2018-03-31T06:03:05.511Z,958.24
2018-03-31T06:04:05.249Z,958.24
2018-03-31T06:05:05.142Z,958.19
2018-03-31T06:06:05.842Z,958.24
2018-03-31T06:07:05.361Z,958.27
2018-03-31T06:08:06.343Z,958.30
2018-03-31T06:09:05.742Z,958.41
2018-03-31T06:10:05.552Z,958.46
2018-03-31T06:11:06.223Z,958.38
2018-03-31T06:12:05.283Z,958.41
2018-03-31T06:13:05.793Z,958.44
2018-03-31T06:14:05.652Z,958.35
2018-03-31T06:15:05.321Z,958.52
2018-03-31T06:16:05.366Z,958.49
2018-03-31T06:17:05.032Z,958.41
2018-03-31T06:18:05.796Z,958.49
2018-03-31T06:19:05.105Z,958.35
2018-03-31T06:20:05.684Z,958.41
2018-03-31T06:21:05.710Z,958.38
2018-03-31T06:22:05.485Z,958.35
2018-03-31T06:23:05.519Z,958.38
2018-03-31T06:24:05.561Z,958.41
2018-03-31T06:25:10.653Z,958.41
2018-03-31T06:26:05.502Z,958.44
2018-03-31T06:27:05.592Z,958.44
2018-03-31T06:28:06.120Z,958.46
2018-03-31T06:29:05.252Z,958.44
2018-03-31T06:30:05.381Z,958.49
2018-03-31T06:31:05.643Z,958.38
2018-03-31T06:32:05.351Z,958.72
2018-03-31T06:33:05.453Z,958.52
2018-03-31T06:34:05.311Z,958.32
2018-03-31T06:35:05.309Z,958.30
2018-03-31T06:36:05.209Z,958.38
2018-03-31T06:37:05.227Z,958.60
2018-03-31T06:38:05.300Z,958.52
2018-03-31T06:39:06.134Z,958.38
2018-03-31T06:40:05.626Z,958.46
2018-03-31T06:41:05.461Z,958.49
2018-03-31T06:42:05.348Z,958.58
2018-03-31T06:43:05.941Z,958.58
2018-03-31T06:44:10.049Z,958.66
2018-03-31T06:45:05.883Z,958.55
2018-03-31T06:46:05.565Z,958.38
2018-03-31T06:47:05.606Z,958.60
2018-03-31T06:48:05.456Z,958.55
2018-03-31T06:49:04.988Z,958.55
2018-03-31T06:50:06.174Z,958.38
2018-03-31T06:51:06.855Z,958.58
2018-03-31T06:52:05.293Z,958.52
2018-03-31T06:53:05.283Z,958.63
2018-03-31T06:54:05.163Z,958.55
2018-03-31T06:55:05.297Z,958.49
2018-03-31T06:56:05.507Z,958.66
2018-03-31T06:57:05.756Z,958.49
2018-03-31T06:58:05.714Z,958.58
2018-03-31T06:59:05.830Z,958.60
2018-03-31T07:00:05.403Z,958.58
2018-03-31T07:01:05.338Z,958.58
2018-03-31T07:02:05.473Z,958.46
2018-03-31T07:03:05.005Z,958.63
2018-03-31T07:04:05.180Z,958.61
2018-03-31T07:05:05.595Z,958.46
2018-03-31T07:06:04.981Z,958.55
2018-03-31T07:07:05.079Z,958.49
2018-03-31T07:08:05.906Z,958.44
2018-03-31T07:09:05.865Z,958.55
2018-03-31T07:10:05.624Z,958.44
2018-03-31T07:11:05.317Z,958.52
2018-03-31T07:12:05.144Z,958.41
2018-03-31T07:13:05.187Z,958.35
2018-03-31T07:14:05.874Z,958.52
2018-03-31T07:15:05.763Z,958.41
2018-03-31T07:16:05.524Z,958.46
2018-03-31T07:17:05.570Z,958.44
2018-03-31T07:18:05.790Z,958.43
2018-03-31T07:19:05.449Z,958.40
2018-03-31T07:20:05.254Z,958.54
2018-03-31T07:21:05.101Z,958.43
2018-03-31T07:22:05.201Z,958.49
2018-03-31T07:23:05.411Z,958.43
2018-03-31T07:24:05.382Z,958.37
2018-03-31T07:25:05.410Z,958.31
2018-03-31T07:26:05.588Z,958.42
2018-03-31T07:27:10.218Z,958.40
2018-03-31T07:28:05.610Z,958.42
2018-03-31T07:29:05.600Z,958.42
2018-03-31T07:30:06.790Z,958.42
2018-03-31T07:31:07.045Z,958.45
2018-03-31T07:32:05.991Z,958.45
2018-03-31T07:33:05.377Z,958.53
2018-03-31T07:34:05.271Z,958.56
2018-03-31T07:35:05.423Z,958.45
2018-03-31T07:36:04.949Z,958.39
2018-03-31T07:37:05.990Z,958.47
2018-03-31T07:38:05.449Z,958.44
2018-03-31T07:39:05.215Z,958.44
2018-03-31T07:40:05.834Z,958.42
2018-03-31T07:41:05.621Z,958.42
2018-03-31T07:42:05.778Z,958.42
2018-03-31T07:43:05.653Z,958.58
2018-03-31T07:44:06.036Z,958.44
2018-03-31T07:45:05.536Z,958.47
2018-03-31T07:46:05.728Z,958.38
2018-03-31T07:47:05.672Z,958.41
2018-03-31T07:48:05.272Z,958.58
2018-03-31T07:49:05.974Z,958.61
2018-03-31T07:50:05.525Z,958.61
2018-03-31T07:51:05.738Z,958.52
2018-03-31T07:52:05.854Z,958.58
2018-03-31T07:53:10.811Z,958.63
2018-03-31T07:54:05.861Z,958.55
2018-03-31T07:55:05.387Z,958.63
2018-03-31T07:56:05.322Z,958.66
2018-03-31T07:57:05.525Z,958.66
2018-03-31T07:58:07.206Z,958.72
2018-03-31T07:59:05.134Z,958.58
2018-03-31T08:00:05.177Z,958.52
2018-03-31T08:01:05.013Z,958.66
2018-03-31T08:02:05.064Z,958.58
2018-03-31T08:03:05.679Z,958.60
2018-03-31T08:04:05.283Z,958.55
2018-03-31T08:05:05.577Z,958.58
2018-03-31T08:06:05.330Z,958.52
2018-03-31T08:07:05.870Z,958.58
2018-03-31T08:08:05.814Z,958.60
2018-03-31T08:09:05.782Z,958.55
2018-03-31T08:10:05.419Z,958.60
2018-03-31T08:11:05.392Z,958.60
2018-03-31T08:12:05.079Z,958.60
2018-03-31T08:13:05.847Z,958.69
2018-03-31T08:14:05.456Z,958.63
2018-03-31T08:15:05.232Z,958.69
2018-03-31T08:16:05.874Z,958.68
2018-03-31T08:17:06.163Z,958.71
2018-03-31T08:18:05.908Z,958.68
2018-03-31T08:19:05.534Z,958.57
2018-03-31T08:20:05.050Z,958.57
2018-03-31T08:21:05.882Z,958.57
2018-03-31T08:22:05.875Z,958.71
2018-03-31T08:23:05.623Z,958.68
2018-03-31T08:24:05.629Z,958.74
2018-03-31T08:25:05.692Z,958.71
2018-03-31T08:26:10.670Z,958.71
2018-03-31T08:27:05.523Z,958.82
2018-03-31T08:28:05.383Z,958.94
2018-03-31T08:29:05.987Z,958.82
2018-03-31T08:30:05.656Z,958.85
2018-03-31T08:31:05.489Z,958.88
2018-03-31T08:32:05.942Z,958.82
2018-03-31T08:33:05.705Z,958.94
2018-03-31T08:34:05.122Z,958.88
2018-03-31T08:35:05.087Z,958.91
2018-03-31T08:36:05.445Z,959.10
2018-03-31T08:37:05.608Z,958.91
2018-03-31T08:38:05.287Z,958.85
2018-03-31T08:39:05.491Z,959.05
2018-03-31T08:40:05.264Z,958.96
2018-03-31T08:41:05.620Z,959.02
2018-03-31T08:42:05.819Z,958.91
2018-03-31T08:43:04.948Z,959.00
2018-03-31T08:44:05.379Z,959.05
2018-03-31T08:45:05.207Z,959.02
2018-03-31T08:46:05.311Z,958.99
2018-03-31T08:47:05.398Z,958.94
2018-03-31T08:48:05.476Z,958.97
2018-03-31T08:49:05.335Z,958.88
2018-03-31T08:50:05.323Z,959.05
2018-03-31T08:51:06.348Z,959.02
2018-03-31T08:52:05.580Z,958.99
2018-03-31T08:53:05.497Z,958.99
2018-03-31T08:54:05.230Z,959.02
2018-03-31T08:55:05.185Z,958.99
2018-03-31T08:56:05.167Z,958.93
2018-03-31T08:57:05.336Z,958.99
2018-03-31T08:58:05.954Z,959.04
2018-03-31T08:59:05.406Z,959.07
2018-03-31T09:00:05.158Z,959.01
2018-03-31T09:01:05.203Z,958.98
2018-03-31T09:02:05.480Z,958.93
2018-03-31T09:03:05.503Z,958.95
2018-03-31T09:04:05.712Z,958.98
2018-03-31T09:05:05.189Z,958.90
2018-03-31T09:06:05.792Z,958.92
2018-03-31T09:07:05.639Z,959.04
2018-03-31T09:08:05.519Z,958.81
2018-03-31T09:09:06.019Z,958.78
2018-03-31T09:10:05.529Z,958.87
2018-03-31T09:11:05.362Z,958.87
2018-03-31T09:12:05.248Z,958.72
2018-03-31T09:13:05.539Z,958.81
2018-03-31T09:14:05.618Z,958.75
2018-03-31T09:15:05.512Z,958.70
2018-03-31T09:16:05.858Z,958.67
2018-03-31T09:17:05.659Z,958.55
2018-03-31T09:18:05.726Z,958.49
2018-03-31T09:19:05.623Z,958.41
2018-03-31T09:20:05.744Z,958.46
2018-03-31T09:21:05.177Z,958.37
2018-03-31T09:22:05.329Z,958.54
2018-03-31T09:23:10.391Z,958.45
2018-03-31T09:24:05.720Z,958.53
2018-03-31T09:25:05.823Z,958.44
2018-03-31T09:26:05.730Z,958.50
2018-03-31T09:27:05.391Z,958.46
2018-03-31T09:28:05.450Z,958.49
2018-03-31T09:29:05.651Z,958.51
2018-03-31T09:30:05.547Z,958.56
2018-03-31T09:31:05.366Z,958.41
2018-03-31T09:32:05.099Z,958.52
2018-03-31T09:33:05.148Z,958.63
2018-03-31T09:34:05.728Z,958.62
2018-03-31T09:35:05.811Z,958.65
2018-03-31T09:36:05.869Z,958.67
2018-03-31T09:37:05.186Z,958.75
2018-03-31T09:38:05.324Z,958.70
2018-03-31T09:39:05.497Z,958.78
2018-03-31T09:40:05.111Z,958.95
2018-03-31T09:41:05.329Z,958.75
2018-03-31T09:42:05.508Z,958.80
2018-03-31T09:43:10.120Z,958.75
2018-03-31T09:44:05.478Z,958.72
2018-03-31T09:45:05.554Z,958.74
2018-03-31T09:46:05.131Z,958.80
2018-03-31T09:47:05.917Z,958.69
2018-03-31T09:48:05.393Z,958.79
2018-03-31T09:49:05.397Z,958.62
2018-03-31T09:50:05.560Z,958.73
2018-03-31T09:51:05.528Z,958.71
2018-03-31T09:52:05.641Z,958.67
2018-03-31T09:53:05.188Z,958.84
2018-03-31T09:54:05.893Z,958.87
2018-03-31T09:55:05.666Z,958.81
2018-03-31T09:56:05.707Z,958.87
2018-03-31T09:57:05.319Z,958.92
2018-03-31T09:58:06.030Z,958.89
2018-03-31T09:59:05.677Z,958.87
2018-03-31T10:00:05.858Z,958.84
2018-03-31T10:01:05.318Z,958.93
2018-03-31T10:02:05.790Z,958.93
2018-03-31T10:03:05.455Z,958.76
2018-03-31T10:04:05.054Z,958.82
2018-03-31T10:05:05.176Z,958.85
2018-03-31T10:06:05.136Z,958.94
2018-03-31T10:07:05.088Z,958.83
2018-03-31T10:08:05.875Z,958.83
2018-03-31T10:09:05.609Z,958.91
2018-03-31T10:10:05.447Z,958.89
2018-03-31T10:11:05.148Z,958.83
2018-03-31T10:12:05.158Z,959.06
2018-03-31T10:13:05.072Z,958.86
2018-03-31T10:14:06.060Z,958.89
2018-03-31T10:15:05.457Z,958.95
2018-03-31T10:16:05.726Z,958.73
2018-03-31T10:17:05.460Z,958.87
2018-03-31T10:18:05.031Z,958.81
2018-03-31T10:19:05.039Z,958.87
2018-03-31T10:20:05.149Z,958.73
2018-03-31T10:21:05.292Z,958.76
2018-03-31T10:22:05.462Z,958.68
2018-03-31T10:23:05.243Z,958.73
2018-03-31T10:24:05.909Z,958.64
2018-03-31T10:25:05.690Z,958.62
2018-03-31T10:26:05.231Z,958.70
2018-03-31T10:27:05.345Z,958.79
2018-03-31T10:28:10.504Z,958.81
2018-03-31T10:29:10.723Z,958.61
2018-03-31T10:30:05.137Z,958.89
2018-03-31T10:31:05.734Z,958.72
2018-03-31T10:32:05.767Z,958.74
2018-03-31T10:33:05.569Z,958.74
2018-03-31T10:34:05.625Z,958.68
2018-03-31T10:35:05.059Z,958.65
2018-03-31T10:36:05.066Z,958.75
2018-03-31T10:37:05.631Z,958.64
2018-03-31T10:38:06.661Z,958.69
2018-03-31T10:39:05.698Z,958.57
2018-03-31T10:40:05.652Z,958.70
2018-03-31T10:41:05.782Z,958.59
2018-03-31T10:42:05.120Z,958.58
2018-03-31T10:43:10.222Z,958.61
2018-03-31T10:44:05.101Z,958.75
2018-03-31T10:45:05.780Z,958.64
2018-03-31T10:46:05.503Z,958.78
2018-03-31T10:47:05.535Z,958.78
2018-03-31T10:48:05.809Z,958.61
2018-03-31T10:49:05.872Z,958.72
2018-03-31T10:50:05.528Z,958.84
2018-03-31T10:51:05.632Z,958.67
2018-03-31T10:52:05.359Z,958.75
2018-03-31T10:53:05.592Z,958.81
2018-03-31T10:54:05.777Z,958.87
2018-03-31T10:55:05.409Z,958.96
2018-03-31T10:56:05.428Z,959.04
2018-03-31T10:57:05.245Z,958.90
2018-03-31T10:58:05.445Z,959.01
2018-03-31T10:59:05.211Z,958.93
2018-03-31T11:00:05.658Z,958.99
2018-03-31T11:01:05.500Z,959.02
2018-03-31T11:02:05.259Z,958.93
2018-03-31T11:03:05.700Z,959.08
2018-03-31T11:04:05.610Z,958.99
2018-03-31T11:05:05.272Z,958.94
2018-03-31T11:06:05.780Z,959.02
2018-03-31T11:07:05.887Z,958.96
2018-03-31T11:08:05.232Z,959.02
2018-03-31T11:09:05.742Z,958.99
2018-03-31T11:10:05.476Z,959.10
2018-03-31T11:11:04.975Z,959.05
2018-03-31T11:12:05.111Z,958.91
2018-03-31T11:13:05.249Z,958.88
2018-03-31T11:14:05.060Z,958.91
2018-03-31T11:15:05.502Z,958.82
2018-03-31T11:16:05.172Z,958.88
2018-03-31T11:17:05.673Z,958.88
2018-03-31T11:18:10.601Z,958.91
2018-03-31T11:19:05.852Z,958.88
2018-03-31T11:20:05.835Z,959.02
2018-03-31T11:21:05.343Z,958.91
2018-03-31T11:22:10.167Z,958.96
2018-03-31T11:23:05.607Z,958.99
2018-03-31T11:24:05.936Z,958.82
2018-03-31T11:25:05.664Z,958.90
2018-03-31T11:26:05.168Z,958.93
2018-03-31T11:27:05.283Z,958.90
2018-03-31T11:28:05.979Z,958.87
2018-03-31T11:29:05.574Z,958.75
2018-03-31T11:30:05.527Z,959.01
2018-03-31T11:31:10.558Z,958.98
2018-03-31T11:32:05.363Z,958.92
2018-03-31T11:33:05.482Z,959.03
2018-03-31T11:34:10.955Z,958.86
2018-03-31T11:35:05.842Z,959.06
2018-03-31T11:36:05.501Z,959.00
2018-03-31T11:37:05.590Z,959.00
2018-03-31T11:38:05.153Z,958.97
2018-03-31T11:39:05.246Z,959.03
2018-03-31T11:40:05.990Z,959.15
2018-03-31T11:41:05.369Z,959.12
2018-03-31T11:42:05.654Z,959.17
2018-03-31T11:43:05.460Z,959.17
2018-03-31T11:44:10.598Z,959.20
2018-03-31T11:45:05.440Z,959.20
2018-03-31T11:46:05.439Z,959.13
2018-03-31T11:47:05.280Z,959.20
2018-03-31T11:48:06.729Z,959.18
2018-03-31T11:49:05.507Z,959.11
2018-03-31T11:50:05.910Z,959.11
2018-03-31T11:51:05.972Z,959.16
2018-03-31T11:52:06.034Z,959.16
2018-03-31T11:53:05.577Z,959.22
2018-03-31T11:54:05.023Z,959.22
2018-03-31T11:55:05.771Z,959.30
2018-03-31T11:56:05.741Z,959.17
2018-03-31T11:57:05.346Z,959.48
2018-03-31T11:58:05.940Z,959.28
2018-03-31T11:59:05.566Z,959.45
2018-03-31T12:00:05.546Z,959.37
2018-03-31T12:01:05.757Z,959.26
2018-03-31T12:02:05.774Z,959.43
2018-03-31T12:03:05.709Z,959.34
2018-03-31T12:04:05.629Z,959.37
2018-03-31T12:05:05.733Z,959.23
2018-03-31T12:06:05.802Z,959.23
2018-03-31T12:07:05.639Z,959.34
2018-03-31T12:08:05.106Z,959.31
2018-03-31T12:09:05.776Z,959.31
2018-03-31T12:10:05.359Z,959.25
2018-03-31T12:11:05.393Z,959.36
2018-03-31T12:12:05.559Z,959.25
2018-03-31T12:13:05.536Z,959.24
2018-03-31T12:14:05.124Z,959.16
2018-03-31T12:15:06.130Z,959.13
2018-03-31T12:16:05.200Z,959.26
2018-03-31T12:17:06.000Z,959.20
2018-03-31T12:18:05.894Z,959.13
2018-03-31T12:19:05.810Z,959.26
2018-03-31T12:20:05.743Z,959.07
2018-03-31T12:21:05.357Z,959.15
2018-03-31T12:22:05.904Z,959.06
2018-03-31T12:23:05.347Z,959.25
2018-03-31T12:24:05.815Z,959.16
2018-03-31T12:25:05.553Z,959.19
2018-03-31T12:26:05.693Z,959.21
2018-03-31T12:27:05.992Z,959.32
2018-03-31T12:28:05.792Z,959.08